Time;durP1;ratioP1;P1;durP2;ratioP2;P2;SDS_P1;SDS_P2;PMS_P1;PMS_P2;Temp;Humidity;BMP_temperature;BMP_pressure;BME280_temperature;BME280_humidity;BME280_pressure;Samples;Min_cycle;Max_cycle;Signal;HPM_P1;HPM_P2
2021/04/25 00:01:41;;;;;;;9.10;6.07;;;;;;;5.26;61.23;102678.13;5287127;28;20449;-67
2021/04/25 00:04:15;;;;;;;12.10;6.53;;;;;;;5.35;61.40;102683.88;5287936;28;20063;-67
2021/04/25 00:06:46;;;;;;;9.57;6.18;;;;;;;5.23;61.38;102683.44;5285406;28;20027;-67
2021/04/25 00:09:20;;;;;;;9.75;5.70;;;;;;;5.17;61.52;102681.03;5285606;28;20023;-67
2021/04/25 00:11:51;;;;;;;10.30;6.03;;;;;;;5.15;62.72;102681.06;5287607;28;20029;-67
2021/04/25 00:14:23;;;;;;;11.70;6.15;;;;;;;5.15;63.06;102675.88;5284159;28;20044;-69
2021/04/25 00:16:54;;;;;;;12.32;6.50;;;;;;;5.13;62.62;102680.28;5268196;28;20089;-67
2021/04/25 00:19:26;;;;;;;11.25;6.13;;;;;;;5.04;63.04;102672.78;5287694;28;20037;-67
2021/04/25 00:21:57;;;;;;;10.52;6.25;;;;;;;5.01;63.27;102668.53;5288337;28;20032;-66
2021/04/25 00:24:28;;;;;;;12.40;6.53;;;;;;;4.96;64.13;102672.16;5286219;28;20032;-67
2021/04/25 00:27:00;;;;;;;9.65;6.85;;;;;;;5.05;63.46;102672.75;5285477;28;20602;-67
2021/04/25 00:29:31;;;;;;;13.68;5.93;;;;;;;4.92;63.95;102670.56;5285522;28;20537;-68
2021/04/25 00:32:02;;;;;;;10.07;6.43;;;;;;;4.97;64.50;102674.72;5288913;28;20068;-68
2021/04/25 00:34:34;;;;;;;11.30;6.25;;;;;;;4.93;64.27;102673.13;5285660;28;20025;-68
2021/04/25 00:37:05;;;;;;;14.20;6.75;;;;;;;4.88;64.31;102675.84;5283968;28;20046;-68
2021/04/25 00:39:36;;;;;;;10.95;6.18;;;;;;;4.83;64.71;102677.75;5288733;28;20086;-68
2021/04/25 00:42:08;;;;;;;12.80;6.80;;;;;;;4.81;65.34;102668.31;5283958;28;20421;-68
2021/04/25 00:44:40;;;;;;;10.30;6.03;;;;;;;4.84;64.55;102678.59;5284543;28;20024;-68
2021/04/25 00:47:12;;;;;;;12.02;6.30;;;;;;;4.71;65.98;102666.91;5285582;28;20077;-68
2021/04/25 00:49:43;;;;;;;9.10;6.43;;;;;;;4.73;65.41;102676.34;5284733;28;20362;-67
2021/04/25 00:52:14;;;;;;;12.48;6.43;;;;;;;4.73;64.76;102667.69;5285116;28;20028;-68
2021/04/25 00:54:45;;;;;;;10.80;6.65;;;;;;;4.70;65.86;102667.78;5285222;28;20068;-67
2021/04/25 00:57:20;;;;;;;10.15;6.95;;;;;;;4.81;65.99;102673.50;5284314;28;20856;-68
2021/04/25 00:59:53;;;;;;;11.95;6.65;;;;;;;4.67;65.85;102675.69;5284348;28;20023;-68
2021/04/25 01:02:26;;;;;;;12.15;6.88;;;;;;;4.67;65.58;102676.53;5282951;28;20020;-68
2021/04/25 01:04:57;;;;;;;10.33;6.50;;;;;;;4.68;65.88;102669.59;5283941;28;20029;-67
2021/04/25 01:07:28;;;;;;;12.20;7.60;;;;;;;4.57;66.85;102682.91;5285856;28;20097;-67
2021/04/25 01:10:01;;;;;;;12.88;6.78;;;;;;;4.47;67.14;102669.38;5284487;28;20128;-68
2021/04/25 01:12:33;;;;;;;11.73;7.18;;;;;;;4.43;67.13;102675.50;5284276;28;20039;-67
2021/04/25 01:15:06;;;;;;;14.02;7.13;;;;;;;4.32;67.08;102675.00;5286108;28;20731;-68
2021/04/25 01:17:40;;;;;;;12.20;6.93;;;;;;;4.30;67.16;102669.84;5267485;28;20028;-68
2021/04/25 01:20:14;;;;;;;14.10;7.93;;;;;;;4.23;67.56;102667.47;5285988;28;20481;-66
2021/04/25 01:22:46;;;;;;;11.07;7.43;;;;;;;4.24;67.33;102672.59;5283006;28;20379;-69
2021/04/25 01:25:20;;;;;;;12.63;7.07;;;;;;;4.32;66.84;102662.88;5280473;28;20039;-67
2021/04/25 01:27:52;;;;;;;12.68;7.53;;;;;;;4.08;67.52;102656.63;5281671;28;20033;-66
2021/04/25 01:30:30;;;;;;;11.80;7.72;;;;;;;4.08;67.34;102663.56;5284526;28;20031;-68
2021/04/25 01:33:01;;;;;;;14.48;7.70;;;;;;;4.08;68.17;102668.75;5285759;28;20015;-67
2021/04/25 01:35:33;;;;;;;13.38;7.60;;;;;;;4.00;68.17;102668.13;5285656;28;20481;-68
2021/04/25 01:38:04;;;;;;;15.98;8.65;;;;;;;3.97;68.28;102663.03;5282574;28;20036;-66
2021/04/25 01:40:35;;;;;;;12.75;8.27;;;;;;;3.96;67.74;102666.53;5285309;28;20024;-67
2021/04/25 01:43:07;;;;;;;12.45;7.53;;;;;;;3.98;67.71;102667.31;5285509;28;20029;-68
2021/04/25 01:45:38;;;;;;;11.25;7.28;;;;;;;4.01;68.51;102660.28;5284462;28;20032;-66
2021/04/25 01:48:10;;;;;;;12.50;7.80;;;;;;;3.90;68.69;102668.41;5283297;28;20032;-68
2021/04/25 01:50:41;;;;;;;12.27;7.57;;;;;;;3.79;69.30;102660.06;5284961;28;20054;-67
2021/04/25 01:53:13;;;;;;;13.15;8.73;;;;;;;3.86;69.19;102665.91;5283877;28;20477;-67
2021/04/25 01:55:44;;;;;;;14.50;8.35;;;;;;;3.81;69.01;102667.78;5282809;28;20425;-66
2021/04/25 01:58:15;;;;;;;13.90;7.85;;;;;;;3.81;68.95;102653.09;5283592;28;20439;-66
2021/04/25 02:00:47;;;;;;;12.35;8.07;;;;;;;3.71;70.00;102653.38;5283593;28;20663;-66
2021/04/25 02:03:18;;;;;;;15.98;8.30;;;;;;;3.84;68.15;102658.19;5280130;28;20404;-68
2021/04/25 02:05:49;;;;;;;14.57;8.40;;;;;;;3.70;68.88;102655.13;5279707;28;20070;-68
2021/04/25 02:08:21;;;;;;;11.88;7.18;;;;;;;3.63;69.95;102676.91;5276536;28;20611;-68
2021/04/25 02:10:52;;;;;;;14.00;7.85;;;;;;;3.72;69.25;102674.09;5283736;28;20507;-66
2021/04/25 02:13:24;;;;;;;15.75;8.15;;;;;;;3.62;69.46;102663.09;5283447;28;20048;-67
2021/04/25 02:15:56;;;;;;;16.67;8.52;;;;;;;3.69;69.80;102679.34;5282353;28;20086;-67
2021/04/25 02:18:27;;;;;;;17.63;9.50;;;;;;;3.56;70.24;102668.47;5283422;28;20028;-66
2021/04/25 02:20:58;;;;;;;16.48;8.90;;;;;;;3.52;70.31;102682.34;5282518;28;20024;-67
2021/04/25 02:23:30;;;;;;;17.52;8.25;;;;;;;3.55;69.28;102677.09;5284679;28;20031;-66
2021/04/25 02:26:01;;;;;;;16.30;8.48;;;;;;;3.48;70.41;102682.47;5284073;28;20020;-68
2021/04/25 02:28:32;;;;;;;14.48;9.35;;;;;;;3.42;70.75;102683.50;5283155;28;20088;-67
2021/04/25 02:31:03;;;;;;;13.50;8.77;;;;;;;3.35;70.77;102675.03;5284993;28;20036;-68
2021/04/25 02:33:35;;;;;;;13.18;8.52;;;;;;;3.27;71.33;102689.91;5284393;28;20031;-68
2021/04/25 02:36:07;;;;;;;13.40;8.75;;;;;;;3.29;71.09;102670.00;5282747;28;20126;-67
2021/04/25 02:38:38;;;;;;;16.33;9.85;;;;;;;3.31;71.25;102678.59;5283772;28;20021;-67
2021/04/25 02:41:09;;;;;;;14.23;8.13;;;;;;;3.35;70.74;102674.19;5283875;28;20108;-67
2021/04/25 02:43:41;;;;;;;16.25;8.73;;;;;;;3.34;70.52;102675.94;5281196;28;20024;-67
2021/04/25 02:46:12;;;;;;;13.95;8.68;;;;;;;3.46;70.68;102679.09;5281860;28;20032;-67
2021/04/25 02:48:43;;;;;;;15.68;8.85;;;;;;;3.41;70.45;102679.22;5283075;28;20461;-68
2021/04/25 02:51:15;;;;;;;17.60;8.60;;;;;;;3.36;71.14;102676.72;5283384;28;20094;-66
2021/04/25 02:53:46;;;;;;;13.50;8.35;;;;;;;3.44;70.48;102680.84;5285415;28;20128;-68
2021/04/25 02:56:17;;;;;;;17.25;9.43;;;;;;;3.48;70.41;102674.72;5282030;28;20063;-68
2021/04/25 02:58:48;;;;;;;14.70;9.27;;;;;;;3.40;70.88;102669.72;5283676;28;20024;-67
2021/04/25 03:01:20;;;;;;;16.35;8.70;;;;;;;3.41;70.86;102664.53;5283674;28;20028;-68
2021/04/25 03:03:51;;;;;;;15.52;9.00;;;;;;;3.42;70.84;102666.22;5284139;28;20077;-67
2021/04/25 03:06:22;;;;;;;14.05;7.78;;;;;;;3.44;71.20;102663.56;5283289;28;20035;-66
2021/04/25 03:08:55;;;;;;;13.65;7.75;;;;;;;3.53;71.04;102668.53;5284289;28;20077;-67
2021/04/25 03:11:26;;;;;;;15.37;8.20;;;;;;;3.54;69.98;102670.22;5282949;28;20431;-67
2021/04/25 03:13:57;;;;;;;14.88;7.22;;;;;;;3.54;69.77;102665.03;5282348;28;20041;-67
2021/04/25 03:16:29;;;;;;;13.65;7.50;;;;;;;3.50;69.65;102662.56;5281629;28;20060;-67
2021/04/25 03:19:00;;;;;;;14.85;7.30;;;;;;;3.56;69.38;102663.28;5266194;28;20031;-66
2021/04/25 03:21:31;;;;;;;12.90;7.38;;;;;;;3.62;68.94;102667.44;5286327;28;20134;-67
2021/04/25 03:24:03;;;;;;;11.80;6.93;;;;;;;3.64;68.69;102663.91;5279997;28;20033;-67
2021/04/25 03:26:34;;;;;;;11.82;6.45;;;;;;;3.66;68.48;102669.06;5284792;28;20040;-66
2021/04/25 03:29:07;;;;;;;11.82;6.05;;;;;;;3.65;67.78;102667.34;5285133;28;20067;-67
2021/04/25 03:31:38;;;;;;;8.85;5.28;;;;;;;3.73;67.81;102665.41;5282030;28;20051;-67
2021/04/25 03:34:09;;;;;;;10.27;5.70;;;;;;;3.75;67.16;102661.03;5284086;28;20037;-67
2021/04/25 03:36:41;;;;;;;13.10;6.18;;;;;;;3.72;67.35;102668.06;5282198;28;20037;-69
2021/04/25 03:39:13;;;;;;;10.68;5.85;;;;;;;3.76;67.13;102674.84;5284259;28;20481;-67
2021/04/25 03:41:44;;;;;;;9.52;5.45;;;;;;;3.73;67.52;102667.16;5284114;28;20114;-67
2021/04/25 03:44:16;;;;;;;11.23;5.50;;;;;;;3.76;67.04;102665.31;5282574;28;20119;-67
2021/04/25 03:46:48;;;;;;;10.65;5.43;;;;;;;3.77;66.56;102672.22;5283375;28;20027;-66
2021/04/25 03:49:21;;;;;;;12.13;5.40;;;;;;;3.79;66.76;102664.38;5286280;28;20028;-67
2021/04/25 03:51:54;;;;;;;10.15;5.00;;;;;;;3.77;67.06;102679.13;5285611;28;20028;-66
2021/04/25 03:54:26;;;;;;;8.05;4.82;;;;;;;3.77;65.81;102672.22;5287016;28;20032;-66
2021/04/25 03:56:58;;;;;;;8.85;5.38;;;;;;;3.77;66.38;102672.22;5286218;28;20462;-66
2021/04/25 03:59:30;;;;;;;7.90;5.00;;;;;;;3.76;66.02;102675.69;5285685;28;20032;-66
2021/04/25 04:02:01;;;;;;;8.05;4.95;;;;;;;3.75;66.18;102668.81;5277124;28;20285;-68
2021/04/25 04:04:32;;;;;;;11.23;5.25;;;;;;;3.79;66.06;102662.66;5284503;28;20028;-68
2021/04/25 04:07:04;;;;;;;10.43;4.75;;;;;;;3.73;66.06;102672.34;5284631;28;20032;-66
2021/04/25 04:09:35;;;;;;;7.32;4.93;;;;;;;3.75;66.18;102674.00;5288894;28;20020;-67
2021/04/25 04:12:07;;;;;;;11.02;5.22;;;;;;;3.74;66.19;102671.44;5286220;28;20036;-66
2021/04/25 04:14:41;;;;;;;11.45;5.10;;;;;;;3.68;66.21;102674.22;5268194;28;20058;-67
2021/04/25 04:17:12;;;;;;;9.85;4.78;;;;;;;3.64;66.14;102671.69;5287453;28;20079;-66
2021/04/25 04:19:44;;;;;;;9.85;4.78;;;;;;;3.63;65.23;102669.13;5287088;28;20116;-66
2021/04/25 04:22:16;;;;;;;9.60;4.38;;;;;;;3.59;65.36;102668.34;5288957;28;20028;-66
2021/04/25 04:24:47;;;;;;;11.45;4.72;;;;;;;3.58;65.13;102671.84;5285866;28;20432;-66
2021/04/25 04:27:18;;;;;;;8.30;4.82;;;;;;;3.63;65.97;102676.91;5286987;28;20028;-66
2021/04/25 04:29:49;;;;;;;13.05;4.47;;;;;;;3.60;65.50;102666.63;5285368;28;20031;-66
2021/04/25 04:32:21;;;;;;;9.90;4.35;;;;;;;3.57;65.15;102677.06;5287029;28;20445;-66
2021/04/25 04:34:52;;;;;;;11.45;4.80;;;;;;;3.53;64.94;102678.91;5286545;28;20044;-66
2021/04/25 04:37:23;;;;;;;9.48;5.28;;;;;;;3.54;64.28;102669.38;5283997;28;20035;-67
2021/04/25 04:39:55;;;;;;;8.93;4.72;;;;;;;3.57;65.65;102667.56;5286033;28;20028;-67
2021/04/25 04:42:26;;;;;;;10.13;4.68;;;;;;;3.55;64.62;102665.88;5284941;28;20106;-66
2021/04/25 04:44:57;;;;;;;9.63;4.03;;;;;;;3.55;64.46;102665.88;5285218;28;20032;-67
2021/04/25 04:47:29;;;;;;;7.95;3.90;;;;;;;3.55;64.13;102671.91;5284801;28;20032;-67
2021/04/25 04:50:00;;;;;;;9.25;4.68;;;;;;;3.57;64.01;102680.53;5286603;28;20082;-67
2021/04/25 04:52:31;;;;;;;7.22;4.15;;;;;;;3.61;64.37;102676.94;5286247;28;20027;-66
2021/04/25 04:55:03;;;;;;;9.20;4.47;;;;;;;3.64;64.04;102674.28;5284023;28;20032;-67
2021/04/25 04:57:34;;;;;;;10.52;4.65;;;;;;;3.65;64.38;102667.34;5285365;28;20389;-66
2021/04/25 05:00:07;;;;;;;13.50;4.88;;;;;;;3.76;64.17;102680.88;5284939;28;20032;-67
2021/04/25 05:02:39;;;;;;;9.50;3.90;;;;;;;3.77;63.47;102682.56;5284884;28;20032;-67
2021/04/25 05:05:10;;;;;;;11.60;4.53;;;;;;;3.81;63.34;102680.75;5267370;28;20032;-67
2021/04/25 05:07:42;;;;;;;11.95;4.32;;;;;;;3.83;63.35;102687.59;5283889;28;20023;-67
2021/04/25 05:10:13;;;;;;;8.00;3.92;;;;;;;3.89;62.82;102678.78;5284731;28;20040;-66
2021/04/25 05:12:44;;;;;;;7.43;3.95;;;;;;;3.95;62.58;102676.03;5284846;28;20545;-66
2021/04/25 05:15:16;;;;;;;9.38;4.43;;;;;;;4.01;62.22;102680.19;5266814;28;20125;-67
2021/04/25 05:17:47;;;;;;;8.45;4.28;;;;;;;4.02;62.60;102680.19;5267141;28;20047;-67
2021/04/25 05:20:18;;;;;;;10.48;3.95;;;;;;;4.09;61.88;102688.59;5285359;28;20036;-67
2021/04/25 05:22:49;;;;;;;10.35;3.97;;;;;;;4.17;62.67;102691.88;5283369;28;20012;-67
2021/04/25 05:25:21;;;;;;;9.55;4.00;;;;;;;4.20;62.10;102698.69;5286330;28;20035;-67
2021/04/25 05:27:52;;;;;;;10.45;4.30;;;;;;;4.23;62.37;102693.41;5286022;28;20086;-67
2021/04/25 05:30:24;;;;;;;7.22;3.92;;;;;;;4.28;62.21;102692.41;5284371;28;20031;-67
2021/04/25 05:32:55;;;;;;;9.20;3.72;;;;;;;4.27;61.48;102687.25;5286029;28;20473;-67
2021/04/25 05:35:27;;;;;;;9.80;4.22;;;;;;;4.38;61.40;102695.56;5283199;28;20453;-66
2021/04/25 05:37:58;;;;;;;8.73;4.45;;;;;;;4.42;61.48;102688.56;5285340;28;20085;-67
2021/04/25 05:40:29;;;;;;;7.85;3.95;;;;;;;4.52;61.56;102702.97;5283690;28;20451;-66
2021/04/25 05:43:01;;;;;;;12.75;4.20;;;;;;;4.58;61.26;102698.44;5285082;28;20027;-67
2021/04/25 05:45:32;;;;;;;6.35;3.42;;;;;;;4.65;61.11;102706.88;5285775;28;20375;-68
2021/04/25 05:48:04;;;;;;;8.85;4.00;;;;;;;4.71;60.75;102708.47;5286368;28;20329;-67
2021/04/25 05:50:35;;;;;;;7.25;4.22;;;;;;;4.76;60.95;102712.59;5264499;28;20016;-67
2021/04/25 05:53:07;;;;;;;7.28;3.58;;;;;;;4.83;61.34;102713.25;5282228;28;20052;-68
2021/04/25 05:55:38;;;;;;;9.40;4.78;;;;;;;4.89;60.74;102710.50;5285660;28;20024;-68
2021/04/25 05:58:09;;;;;;;8.73;3.83;;;;;;;4.94;60.48;102711.19;5283339;28;20031;-68
2021/04/25 06:00:41;;;;;;;8.18;4.07;;;;;;;4.99;61.05;102713.63;5281026;28;20386;-67
2021/04/25 06:03:12;;;;;;;10.73;3.75;;;;;;;5.07;59.47;102716.84;5284288;28;20394;-68
2021/04/25 06:05:43;;;;;;;12.95;4.13;;;;;;;5.08;58.86;102716.81;5284333;28;20051;-67
2021/04/25 06:08:15;;;;;;;8.38;3.58;;;;;;;5.11;59.04;102715.84;5282415;28;20389;-68
2021/04/25 06:10:46;;;;;;;7.13;3.40;;;;;;;5.13;57.81;102716.66;5281254;28;20043;-67
2021/04/25 06:13:17;;;;;;;8.38;3.55;;;;;;;5.18;58.10;102714.75;5283623;28;20044;-67
2021/04/25 06:15:48;;;;;;;8.10;3.50;;;;;;;5.17;57.22;102713.06;5281606;28;20023;-67
2021/04/25 06:18:20;;;;;;;11.13;3.33;;;;;;;5.20;58.40;102717.31;5284498;28;20031;-69
2021/04/25 06:20:52;;;;;;;9.10;3.22;;;;;;;5.26;58.18;102719.69;5283293;28;20035;-68
2021/04/25 06:23:24;;;;;;;9.10;3.15;;;;;;;5.22;57.27;102726.75;5282499;28;20042;-67
2021/04/25 06:25:56;;;;;;;6.68;2.90;;;;;;;5.24;56.92;102719.75;5285452;28;20020;-67
2021/04/25 06:28:28;;;;;;;5.68;2.88;;;;;;;5.29;58.34;102719.59;5283546;28;20477;-67
2021/04/25 06:31:00;;;;;;;7.87;2.90;;;;;;;5.28;57.36;102723.94;5285476;28;20115;-66
2021/04/25 06:33:31;;;;;;;9.07;3.30;;;;;;;5.31;56.35;102734.25;5283440;28;20290;-68
2021/04/25 06:36:02;;;;;;;8.32;2.90;;;;;;;5.34;57.00;102736.75;5281946;28;20095;-68
2021/04/25 06:38:34;;;;;;;9.52;2.90;;;;;;;5.37;57.34;102735.78;5284092;28;20036;-66
2021/04/25 06:41:05;;;;;;;8.93;2.97;;;;;;;5.43;57.15;102740.81;5284409;28;20024;-69
2021/04/25 06:43:36;;;;;;;8.02;2.65;;;;;;;5.44;56.00;102746.84;5282794;28;20023;-67
2021/04/25 06:46:08;;;;;;;9.10;2.75;;;;;;;5.50;56.46;102737.09;5281404;28;20474;-69
2021/04/25 06:48:39;;;;;;;8.15;3.45;;;;;;;5.57;56.51;102748.16;5283024;28;20439;-67
2021/04/25 06:51:12;;;;;;;7.45;2.30;;;;;;;5.57;55.79;102749.00;5285341;28;20496;-67
2021/04/25 06:53:43;;;;;;;6.80;2.20;;;;;;;5.65;55.77;102747.91;5283513;28;20032;-68
2021/04/25 06:56:15;;;;;;;10.18;3.30;;;;;;;5.63;56.35;102747.09;5284339;28;20021;-67
2021/04/25 06:58:46;;;;;;;6.78;2.25;;;;;;;5.61;55.24;102742.78;5282754;28;20031;-67
2021/04/25 07:01:18;;;;;;;7.40;2.25;;;;;;;5.67;54.96;102743.47;5285432;28;20512;-67
2021/04/25 07:03:50;;;;;;;8.25;2.53;;;;;;;5.70;55.46;102745.97;5282183;28;20048;-67
2021/04/25 07:06:21;;;;;;;6.30;2.53;;;;;;;5.78;55.58;102751.78;5272061;28;20446;-67
2021/04/25 07:08:53;;;;;;;6.57;2.63;;;;;;;5.79;54.59;102748.25;5282221;28;20036;-67
2021/04/25 07:11:24;;;;;;;6.47;2.20;;;;;;;5.83;54.67;102755.06;5283633;28;20032;-68
2021/04/25 07:13:55;;;;;;;8.75;2.80;;;;;;;5.86;55.32;102750.59;5295357;22;20056;-67
2021/04/25 07:16:26;;;;;;;7.18;2.92;;;;;;;5.94;55.85;102747.75;5284964;28;20032;-67
2021/04/25 07:18:58;;;;;;;7.90;2.53;;;;;;;5.93;55.58;102748.66;5277928;28;20442;-67
2021/04/25 07:21:29;;;;;;;6.35;2.83;;;;;;;6.02;55.37;102752.69;5288304;28;20016;-67
2021/04/25 07:24:00;;;;;;;10.65;3.00;;;;;;;6.01;54.18;102738.84;5287688;28;20107;-67
2021/04/25 07:26:32;;;;;;;6.63;2.75;;;;;;;6.12;55.13;102751.47;5281499;28;20090;-67
2021/04/25 07:29:03;;;;;;;9.38;2.97;;;;;;;6.16;55.02;102744.41;5282807;28;20024;-68
2021/04/25 07:31:34;;;;;;;7.78;2.60;;;;;;;6.16;54.58;102742.66;5268737;28;20251;-68
2021/04/25 07:34:06;;;;;;;7.50;2.95;;;;;;;6.22;53.96;102737.25;5280751;28;20362;-69
2021/04/25 07:36:37;;;;;;;6.88;2.60;;;;;;;6.30;54.24;102744.78;5280643;28;20032;-70
2021/04/25 07:39:09;;;;;;;8.18;2.67;;;;;;;6.32;53.46;102743.78;5274933;28;20031;-70
2021/04/25 07:41:40;;;;;;;6.53;2.50;;;;;;;6.39;53.91;102739.22;5276263;28;20032;-71
2021/04/25 07:44:12;;;;;;;8.15;2.63;;;;;;;6.46;53.37;102750.25;5275967;28;20142;-70
2021/04/25 07:46:43;;;;;;;8.75;3.65;;;;;;;6.46;52.70;102743.28;5281100;28;20480;-69
2021/04/25 07:49:15;;;;;;;8.00;2.83;;;;;;;6.47;52.97;102737.16;5287624;28;20423;-70
2021/04/25 07:51:47;;;;;;;8.40;2.88;;;;;;;6.54;52.95;102737.78;5288439;28;20055;-70
2021/04/25 07:54:18;;;;;;;10.13;3.22;;;;;;;6.62;52.29;102740.97;5279455;28;20032;-70
2021/04/25 07:56:49;;;;;;;6.60;2.55;;;;;;;6.66;51.90;102749.50;5289430;28;20121;-71
2021/04/25 07:59:21;;;;;;;9.15;2.58;;;;;;;6.71;51.42;102750.19;5279863;28;20036;-69
2021/04/25 08:01:53;;;;;;;7.50;2.92;;;;;;;6.70;51.94;102748.47;5264742;28;20036;-69
2021/04/25 08:04:24;;;;;;;7.25;2.58;;;;;;;7.05;52.32;102749.75;5276985;28;20440;-70
2021/04/25 08:06:55;;;;;;;11.48;3.10;;;;;;;7.05;50.48;102744.53;5278473;28;20032;-69
2021/04/25 08:09:26;;;;;;;9.35;2.78;;;;;;;7.14;51.10;102749.38;5278044;28;20025;-69
2021/04/25 08:11:58;;;;;;;7.88;2.10;;;;;;;7.16;51.03;102739.75;5279220;28;20497;-69
2021/04/25 08:14:29;;;;;;;7.15;2.38;;;;;;;7.16;51.09;102731.91;5279775;28;20381;-69
2021/04/25 08:17:00;;;;;;;7.78;2.90;;;;;;;7.29;50.68;102748.75;5282922;28;20031;-69
2021/04/25 08:19:32;;;;;;;8.20;2.53;;;;;;;7.41;51.12;102743.94;5283443;28;20056;-69
2021/04/25 08:22:06;;;;;;;9.70;2.90;;;;;;;7.52;50.01;102739.13;5278500;28;20032;-70
2021/04/25 08:24:37;;;;;;;10.38;3.58;;;;;;;7.52;50.21;102746.97;5279592;28;20070;-69
2021/04/25 08:27:09;;;;;;;11.48;3.67;;;;;;;7.61;50.02;102748.31;5277620;28;20096;-69
2021/04/25 08:29:40;;;;;;;5.55;2.42;;;;;;;7.74;50.07;102734.72;5280144;28;20025;-69
2021/04/25 08:32:11;;;;;;;10.15;3.10;;;;;;;8.13;50.00;102733.88;5277564;28;20028;-70
2021/04/25 08:34:43;;;;;;;8.20;2.50;;;;;;;8.45;49.32;102734.25;5271895;28;20024;-69
2021/04/25 08:37:14;;;;;;;12.07;3.20;;;;;;;8.53;46.86;102729.53;5274766;28;20033;-69
2021/04/25 08:39:45;;;;;;;5.43;2.47;;;;;;;8.78;47.21;102724.84;5266729;28;20046;-70
2021/04/25 08:42:17;;;;;;;9.18;2.95;;;;;;;8.86;46.72;102721.84;5273044;28;20397;-69
2021/04/25 08:44:49;;;;;;;8.48;2.83;;;;;;;8.99;46.26;102722.97;5286614;28;20671;-69
2021/04/25 08:47:23;;;;;;;7.63;2.60;;;;;;;9.14;46.89;102736.25;5281456;28;20032;-70
2021/04/25 08:49:59;;;;;;;6.40;2.30;;;;;;;9.27;45.28;102724.25;5282230;28;20052;-70
2021/04/25 08:52:30;;;;;;;8.73;2.40;;;;;;;9.12;45.20;102727.59;5287848;28;20028;-70
2021/04/25 08:55:02;;;;;;;10.10;3.15;;;;;;;9.01;45.59;102731.56;5285319;28;20035;-69
2021/04/25 08:57:33;;;;;;;7.93;2.58;;;;;;;8.80;45.64;102734.38;5275770;28;20051;-69
2021/04/25 09:00:07;;;;;;;7.55;2.38;;;;;;;9.16;46.08;102722.16;5284736;28;20017;-69
2021/04/25 09:02:39;;;;;;;6.88;2.53;;;;;;;9.35;45.80;102723.88;5279478;28;20051;-69
2021/04/25 09:05:11;;;;;;;7.80;2.80;;;;;;;9.47;45.09;102724.13;5277708;28;20528;-69
2021/04/25 09:07:56;;;;;;;5.78;2.70;;;;;;;9.68;45.31;102726.56;5278243;28;20477;-69
2021/04/25 09:10:36;;;;;;;7.30;2.35;;;;;;;9.75;44.36;102727.94;5283398;28;20032;-69
2021/04/25 09:13:24;;;;;;;10.35;3.63;;;;;;;9.58;44.89;102728.78;5280993;28;20024;-69
2021/04/25 09:16:10;;;;;;;7.28;2.63;;;;;;;9.78;44.82;102717.31;5265464;28;20151;-69
2021/04/25 09:18:41;;;;;;;6.38;2.58;;;;;;;9.93;43.63;102729.63;5279557;28;20448;-69
2021/04/25 09:21:12;;;;;;;12.90;2.92;;;;;;;10.05;43.85;102725.50;5283939;28;20032;-69
2021/04/25 09:23:44;;;;;;;7.80;2.75;;;;;;;10.12;43.54;102719.03;5278614;28;20021;-69
2021/04/25 09:26:15;;;;;;;7.03;2.78;;;;;;;10.05;42.51;102711.56;5286386;28;20024;-69
2021/04/25 09:29:00;;;;;;;8.63;2.78;;;;;;;10.30;43.83;102713.75;5265709;28;20409;-69
2021/04/25 09:31:39;;;;;;;8.75;2.67;;;;;;;10.34;43.36;102721.38;5275171;28;20036;-68
2021/04/25 09:34:10;;;;;;;9.00;3.50;;;;;;;10.54;44.14;102715.06;5275449;28;21163;-69
2021/04/25 09:36:41;;;;;;;5.90;2.38;;;;;;;10.64;43.51;102710.97;5276094;28;20035;-69
2021/04/25 09:39:16;;;;;;;10.13;2.70;;;;;;;10.76;43.52;102706.84;5282601;28;20056;-70
2021/04/25 09:41:48;;;;;;;6.38;2.58;;;;;;;10.62;42.03;102705.00;5279214;28;20031;-69
2021/04/25 09:44:33;;;;;;;9.93;2.38;;;;;;;10.77;42.36;102712.94;5283082;28;20008;-70
2021/04/25 09:47:05;;;;;;;6.05;2.30;;;;;;;10.54;42.13;102711.59;5271809;28;20496;-69
2021/04/25 09:49:48;;;;;;;6.15;2.60;;;;;;;10.42;42.32;102713.97;5278473;28;20033;-70
2021/04/25 09:52:26;;;;;;;6.70;2.70;;;;;;;10.39;42.66;102714.13;5284422;28;20321;-69
2021/04/25 09:55:24;;;;;;;7.03;1.90;;;;;;;10.35;43.31;102703.88;5284647;28;20017;-70
2021/04/25 09:58:11;;;;;;;8.18;2.28;;;;;;;10.30;43.11;102701.50;5282201;28;20025;-70
2021/04/25 10:00:47;;;;;;;11.73;2.40;;;;;;;10.36;42.29;102698.56;5283443;28;20059;-69
2021/04/25 10:03:20;;;;;;;7.57;2.47;;;;;;;10.45;42.19;102708.56;5283657;28;20533;-69
2021/04/25 10:06:04;;;;;;;9.20;2.37;;;;;;;10.53;43.54;102694.16;5282189;28;20031;-69
2021/04/25 10:08:37;;;;;;;8.88;2.30;;;;;;;10.54;41.92;102706.34;5275413;28;20481;-69
2021/04/25 10:11:09;;;;;;;6.53;2.10;;;;;;;10.60;41.55;102708.63;5279529;28;20431;-69
2021/04/25 10:13:49;;;;;;;7.85;2.33;;;;;;;10.81;41.71;102701.34;5286370;28;20028;-70
2021/04/25 10:16:21;;;;;;;7.47;2.10;;;;;;;10.94;41.15;102703.19;5267495;28;20063;-69
2021/04/25 10:18:52;;;;;;;6.53;2.40;;;;;;;11.08;41.56;102698.94;5286145;28;20035;-69
2021/04/25 10:21:24;;;;;;;8.43;2.42;;;;;;;10.93;41.67;102687.53;5282352;28;20032;-69
2021/04/25 10:23:57;;;;;;;5.15;1.70;;;;;;;10.82;41.27;102690.75;5280625;28;20028;-69
2021/04/25 10:26:31;;;;;;;8.23;2.13;;;;;;;10.96;41.39;102687.38;5286382;28;20079;-69
2021/04/25 10:29:05;;;;;;;9.45;2.30;;;;;;;10.94;40.93;102684.81;5283297;28;20105;-69
2021/04/25 10:31:38;;;;;;;8.82;2.08;;;;;;;10.74;40.94;102687.72;5283489;28;20039;-69
2021/04/25 10:34:20;;;;;;;7.90;2.47;;;;;;;11.02;41.65;102681.75;5287021;28;20026;-67
2021/04/25 10:36:51;;;;;;;8.32;2.00;;;;;;;11.06;41.98;102678.06;5285612;28;20036;-70
2021/04/25 10:39:52;;;;;;;6.33;2.47;;;;;;;11.01;41.84;102674.00;5267266;28;20037;-69
2021/04/25 10:42:24;;;;;;;10.38;2.90;;;;;;;11.03;42.44;102667.72;5282739;28;20309;-70
2021/04/25 10:47:34;;;;;;;7.50;2.45;;;;;;;11.36;40.52;102677.19;5282346;28;20043;-68
2021/04/25 10:50:14;;;;;;;7.93;2.30;;;;;;;11.63;40.42;102678.19;5285451;28;20032;-70
2021/04/25 10:52:47;;;;;;;8.35;2.30;;;;;;;11.69;39.71;102669.09;5283888;28;20055;-71
2021/04/25 10:55:22;;;;;;;8.25;2.33;;;;;;;11.75;40.03;102671.34;5283091;28;20035;-69
2021/04/25 10:57:54;;;;;;;7.75;2.20;;;;;;;11.88;39.33;102661.81;5285932;28;20020;-69
2021/04/25 11:00:36;;;;;;;6.40;2.22;;;;;;;11.93;39.62;102665.00;5278865;28;20032;-69
2021/04/25 11:03:09;;;;;;;9.87;2.40;;;;;;;11.98;39.94;102662.09;5280441;28;20020;-70
2021/04/25 11:05:41;;;;;;;7.10;2.27;;;;;;;11.93;40.20;102659.75;5285417;28;20110;-69
2021/04/25 11:08:12;;;;;;;7.95;2.80;;;;;;;11.79;39.57;102664.97;5259977;28;20183;-70
2021/04/25 11:11:09;;;;;;;8.43;2.27;;;;;;;12.14;40.13;102651.47;5266918;28;20107;-69
2021/04/25 11:13:50;;;;;;;6.85;2.10;;;;;;;12.11;40.41;102646.41;5275051;28;20047;-69
2021/04/25 11:16:26;;;;;;;7.82;2.75;;;;;;;12.15;40.50;102648.72;5287740;28;20046;-70
2021/04/25 11:19:04;;;;;;;7.35;2.20;;;;;;;12.09;40.55;102643.03;5274207;28;20112;-69
2021/04/25 11:21:40;;;;;;;10.20;2.22;;;;;;;12.24;40.65;102638.63;5280462;28;20107;-69
2021/04/25 11:24:12;;;;;;;5.55;1.95;;;;;;;12.29;40.05;102639.16;5280091;28;20494;-69
2021/04/25 11:26:46;;;;;;;8.13;1.98;;;;;;;12.06;38.99;102630.09;5259355;28;20032;-68
2021/04/25 11:29:17;;;;;;;;;;;;;;;12.52;39.18;102638.53;5270189;28;20031;-69
2021/04/25 11:31:55;;;;;;;6.60;2.00;;;;;;;12.07;39.50;102642.28;5261363;28;19920;-67
2021/04/25 11:34:33;;;;;;;7.13;2.53;;;;;;;12.30;40.45;102648.72;5284464;28;20024;-68
2021/04/25 11:37:20;;;;;;;7.18;2.28;;;;;;;12.43;39.22;102636.50;5283758;28;20123;-68
2021/04/25 11:39:56;;;;;;;8.05;2.00;;;;;;;12.73;38.01;102636.31;5285993;28;20115;-68
2021/04/25 11:42:50;;;;;;;5.68;1.92;;;;;;;12.96;38.26;102642.69;5281799;28;20491;-68
2021/04/25 11:45:30;;;;;;;;;;;;;;;13.18;37.41;102646.50;5279209;28;20032;-68
2021/04/25 11:48:03;;;;;;;5.07;1.77;;;;;;;12.45;38.01;102639.84;5281832;28;21224;-68
2021/04/25 11:50:37;;;;;;;7.28;2.17;;;;;;;12.50;37.97;102639.56;5252417;28;20035;-68
2021/04/25 11:53:08;;;;;;;7.65;2.42;;;;;;;12.43;36.79;102635.66;5280038;28;20029;-68
2021/04/25 11:55:40;;;;;;;6.75;2.10;;;;;;;12.45;37.64;102633.75;5287462;28;20042;-68
2021/04/25 11:58:17;;;;;;;5.97;1.95;;;;;;;12.68;37.77;102624.38;5277247;28;20032;-68